createdAt,value
2019-03-21T00:01:17.010Z,11.56
2019-03-21T00:03:48.150Z,11.56
2019-03-21T00:06:18.419Z,11.56
2019-03-21T00:08:48.757Z,11.41
2019-03-21T00:11:54.391Z,11.35
2019-03-21T00:14:46.976Z,11.28
2019-03-21T00:17:18.099Z,11.32
2019-03-21T00:19:48.240Z,11.25
2019-03-21T00:22:18.427Z,11.25
2019-03-21T00:24:48.624Z,11.29
2019-03-21T00:27:18.805Z,11.33
2019-03-21T00:29:49.008Z,11.27
2019-03-21T00:32:19.179Z,11.17
2019-03-21T00:34:49.299Z,11.13
2019-03-21T00:37:19.478Z,11.15
2019-03-21T00:39:49.624Z,11.02
2019-03-21T00:42:19.909Z,10.98
2019-03-21T00:44:50.024Z,10.99
2019-03-21T00:47:20.257Z,10.79
2019-03-21T00:49:50.409Z,10.77
2019-03-21T00:52:20.564Z,10.74
2019-03-21T00:54:50.755Z,10.82
2019-03-21T00:57:20.894Z,10.72
2019-03-21T00:59:51.032Z,10.70
2019-03-21T01:02:21.251Z,10.76
2019-03-21T01:04:51.426Z,10.70
2019-03-21T01:07:21.755Z,10.55
2019-03-21T01:09:51.916Z,10.43
2019-03-21T01:12:22.106Z,10.32
2019-03-21T01:14:52.307Z,10.38
2019-03-21T01:17:22.503Z,10.32
2019-03-21T01:19:52.661Z,10.24
2019-03-21T01:22:22.796Z,10.22
2019-03-21T01:24:52.919Z,10.04
2019-03-21T01:27:23.096Z,10.08
2019-03-21T01:29:53.250Z,9.94
2019-03-21T01:32:23.451Z,9.89
2019-03-21T01:34:53.586Z,9.73
2019-03-21T01:37:23.832Z,9.78
2019-03-21T01:39:54.007Z,9.64
2019-03-21T01:42:24.835Z,9.60
2019-03-21T01:44:54.993Z,9.53
2019-03-21T01:47:25.117Z,9.58
2019-03-21T01:49:55.286Z,9.79
2019-03-21T01:52:25.425Z,9.82
2019-03-21T01:54:55.695Z,10.05
2019-03-21T01:57:25.980Z,9.83
2019-03-21T01:59:56.163Z,9.65
2019-03-21T02:02:26.346Z,9.66
2019-03-21T02:04:56.535Z,9.79
2019-03-21T02:07:26.713Z,9.82
2019-03-21T02:09:56.884Z,9.69
2019-03-21T02:12:27.113Z,9.87
2019-03-21T02:14:57.336Z,9.81
2019-03-21T02:17:27.469Z,9.72
2019-03-21T02:19:57.617Z,9.72
2019-03-21T02:22:27.816Z,9.67
2019-03-21T02:24:58.055Z,9.95
2019-03-21T02:27:28.166Z,9.76
2019-03-21T02:29:58.311Z,9.72
2019-03-21T02:32:28.452Z,9.76
2019-03-21T02:34:58.662Z,9.79
2019-03-21T02:37:28.834Z,9.78
2019-03-21T02:40:00.317Z,9.80
2019-03-21T02:42:30.888Z,9.81
2019-03-21T02:45:08.535Z,9.70
2019-03-21T02:47:32.960Z,9.77
2019-03-21T02:50:03.143Z,9.80
2019-03-21T02:52:33.299Z,9.83
2019-03-21T02:55:03.517Z,9.96
2019-03-21T02:57:33.686Z,10.02
2019-03-21T03:00:04.061Z,10.08
2019-03-21T03:02:37.208Z,9.96
2019-03-21T03:05:06.838Z,10.05
2019-03-21T03:07:36.960Z,10.07
2019-03-21T03:10:09.348Z,9.93
2019-03-21T03:12:39.501Z,10.00
2019-03-21T03:15:22.777Z,9.86
2019-03-21T03:17:44.010Z,9.97
2019-03-21T03:20:15.323Z,9.98
2019-03-21T03:22:45.510Z,10.00
2019-03-21T03:25:16.138Z,10.05
2019-03-21T03:27:47.110Z,10.03
2019-03-21T03:30:19.283Z,10.02
2019-03-21T03:32:49.431Z,10.08
2019-03-21T03:35:19.585Z,10.13
2019-03-21T03:37:49.831Z,10.02
2019-03-21T03:40:23.424Z,10.13
2019-03-21T03:42:53.574Z,10.10
2019-03-21T03:45:36.786Z,10.14
2019-03-21T03:47:58.002Z,10.20
2019-03-21T03:50:28.150Z,10.17
2019-03-21T03:52:58.359Z,10.18
2019-03-21T03:55:28.659Z,10.27
2019-03-21T03:57:59.732Z,10.35
2019-03-21T04:00:29.898Z,10.20
2019-03-21T04:03:00.034Z,10.17
2019-03-21T04:05:30.194Z,10.21
2019-03-21T04:08:00.413Z,10.21
2019-03-21T04:10:32.761Z,10.25
2019-03-21T04:13:02.921Z,10.77
2019-03-21T04:15:33.019Z,10.66
2019-03-21T04:18:03.204Z,10.43
2019-03-21T04:20:34.449Z,10.27
2019-03-21T04:23:04.737Z,10.16
2019-03-21T04:25:47.476Z,10.24
2019-03-21T04:28:17.669Z,10.21
2019-03-21T04:30:48.662Z,10.21
2019-03-21T04:33:18.803Z,10.16
2019-03-21T04:35:48.999Z,10.21
2019-03-21T04:38:19.150Z,10.13
2019-03-21T04:40:49.405Z,10.14
2019-03-21T04:43:19.566Z,10.23
2019-03-21T04:45:49.688Z,10.25
2019-03-21T04:48:19.903Z,10.30
2019-03-21T04:50:50.010Z,10.36
2019-03-21T04:53:20.201Z,10.37
2019-03-21T04:55:50.352Z,10.20
2019-03-21T04:58:20.480Z,10.16
2019-03-21T05:00:50.678Z,10.38
2019-03-21T05:03:20.817Z,10.35
2019-03-21T05:05:51.069Z,10.16
2019-03-21T05:08:21.229Z,10.34
2019-03-21T05:10:51.424Z,10.19
2019-03-21T05:13:21.527Z,10.18
2019-03-21T05:15:51.702Z,10.29
2019-03-21T05:18:31.133Z,10.44
2019-03-21T05:21:01.529Z,10.48
2019-03-21T05:23:31.642Z,10.59
2019-03-21T05:26:03.959Z,10.64
2019-03-21T05:28:33.677Z,10.73
2019-03-21T05:31:10.316Z,10.64
2019-03-21T05:33:40.510Z,10.58
2019-03-21T05:36:10.728Z,10.80
2019-03-21T05:38:40.921Z,11.01
2019-03-21T05:41:11.076Z,11.06
2019-03-21T05:43:53.652Z,11.10
2019-03-21T05:46:27.049Z,11.29
2019-03-21T05:48:55.700Z,11.11
2019-03-21T05:51:25.837Z,10.97
2019-03-21T05:53:56.065Z,11.07
2019-03-21T05:56:29.981Z,11.18
2019-03-21T05:59:00.759Z,10.92
2019-03-21T06:01:31.857Z,10.76
2019-03-21T06:04:03.847Z,10.71
2019-03-21T06:06:51.287Z,10.86
2019-03-21T06:09:23.153Z,10.83
2019-03-21T06:11:57.749Z,10.68
2019-03-21T06:14:31.864Z,10.61
2019-03-21T06:17:03.508Z,10.66
2019-03-21T06:20:04.056Z,10.69
2019-03-21T06:23:15.167Z,10.80
2019-03-21T06:26:25.487Z,10.85
2019-03-21T06:28:55.720Z,10.93
2019-03-21T06:31:25.922Z,10.93
2019-03-21T06:33:56.170Z,11.12
2019-03-21T06:36:26.409Z,11.23
2019-03-21T06:38:56.580Z,11.38
2019-03-21T06:41:27.118Z,11.48
2019-03-21T06:43:57.348Z,11.27
2019-03-21T06:46:27.694Z,11.44
2019-03-21T06:48:57.900Z,11.92
2019-03-21T06:51:28.092Z,11.65
2019-03-21T06:53:58.346Z,11.71
2019-03-21T06:56:28.518Z,11.88
2019-03-21T06:58:58.751Z,12.00
2019-03-21T07:01:28.951Z,12.31
2019-03-21T07:04:06.919Z,12.33
2019-03-21T07:06:31.152Z,12.19
2019-03-21T07:09:01.289Z,12.81
2019-03-21T07:11:31.434Z,13.28
2019-03-21T07:14:02.227Z,13.35
2019-03-21T07:16:32.394Z,13.84
2019-03-21T07:19:02.579Z,13.70
2019-03-21T07:21:32.786Z,13.77
2019-03-21T07:24:03.002Z,14.45
2019-03-21T07:26:33.213Z,13.64
2019-03-21T07:29:03.441Z,13.57
2019-03-21T07:31:33.675Z,13.28
2019-03-21T07:34:03.912Z,13.72
2019-03-21T07:36:34.239Z,13.61
2019-03-21T07:39:06.630Z,13.19
2019-03-21T07:41:36.816Z,13.00
2019-03-21T07:44:07.102Z,13.02
2019-03-21T07:46:37.255Z,13.38
2019-03-21T07:49:07.420Z,13.07
2019-03-21T07:51:37.748Z,13.26
2019-03-21T07:54:07.956Z,12.87
2019-03-21T07:56:38.162Z,13.04
2019-03-21T07:59:08.366Z,13.40
2019-03-21T08:01:38.566Z,13.47
2019-03-21T08:04:08.802Z,13.71
2019-03-21T08:06:38.972Z,13.86
2019-03-21T08:09:09.504Z,13.49
2019-03-21T08:11:39.704Z,13.63
2019-03-21T08:14:10.083Z,13.39
2019-03-21T08:16:40.324Z,13.66
2019-03-21T08:19:10.482Z,13.66
2019-03-21T08:21:41.175Z,14.13
2019-03-21T08:24:11.463Z,14.33
2019-03-21T08:26:41.703Z,14.44
2019-03-21T08:29:11.930Z,14.89
2019-03-21T08:31:42.114Z,14.58
2019-03-21T08:34:12.252Z,14.36
2019-03-21T08:36:42.456Z,14.84
2019-03-21T08:39:12.637Z,15.38
2019-03-21T08:41:42.838Z,15.90
2019-03-21T08:44:13.081Z,15.85
2019-03-21T08:46:43.271Z,16.49
2019-03-21T08:49:13.510Z,16.41
2019-03-21T08:51:43.690Z,16.15
2019-03-21T08:54:13.885Z,16.22
2019-03-21T08:56:44.132Z,16.05
2019-03-21T08:59:14.346Z,15.88
2019-03-21T09:01:44.554Z,16.34
2019-03-21T09:04:14.824Z,16.40
2019-03-21T09:06:45.013Z,15.45
2019-03-21T09:09:15.259Z,15.49
2019-03-21T09:11:45.486Z,16.05
2019-03-21T09:14:15.677Z,16.22
2019-03-21T09:16:45.923Z,16.11
2019-03-21T09:19:16.109Z,16.64
2019-03-21T09:21:46.310Z,16.38
2019-03-21T09:24:16.600Z,16.46
2019-03-21T09:26:46.813Z,16.85
2019-03-21T09:29:17.100Z,16.45
2019-03-21T09:31:47.247Z,16.98
2019-03-21T09:34:17.440Z,16.87
2019-03-21T09:36:47.795Z,17.53
2019-03-21T09:39:17.966Z,17.19
2019-03-21T09:41:48.160Z,17.11
2019-03-21T09:44:24.306Z,17.01
2019-03-21T09:46:54.998Z,16.98
2019-03-21T09:49:25.223Z,17.58
2019-03-21T09:51:55.500Z,17.55
2019-03-21T09:54:25.617Z,17.10
2019-03-21T09:56:55.915Z,16.54
2019-03-21T09:59:26.098Z,16.81
2019-03-21T10:01:56.300Z,17.03
2019-03-21T10:04:26.499Z,16.52
2019-03-21T10:06:56.643Z,16.57
2019-03-21T10:09:26.812Z,16.99
2019-03-21T10:11:57.026Z,16.63
2019-03-21T10:14:27.206Z,16.79
2019-03-21T10:16:57.427Z,16.92
2019-03-21T10:19:27.627Z,17.17
2019-03-21T10:21:57.870Z,17.13
2019-03-21T10:24:28.033Z,17.22
2019-03-21T10:26:58.261Z,16.78
2019-03-21T10:29:28.402Z,16.78
2019-03-21T10:31:58.587Z,17.25
2019-03-21T10:34:28.752Z,17.10
2019-03-21T10:36:59.014Z,17.37
2019-03-21T10:39:29.242Z,17.80
2019-03-21T10:41:59.460Z,17.91
2019-03-21T10:44:29.672Z,18.22
2019-03-21T10:46:59.855Z,18.22
2019-03-21T10:49:30.019Z,18.06
2019-03-21T10:52:00.197Z,17.97
2019-03-21T10:54:30.394Z,18.30
2019-03-21T10:57:00.592Z,18.24
2019-03-21T10:59:30.808Z,18.29
2019-03-21T11:02:07.216Z,18.22
2019-03-21T11:04:33.010Z,18.06
2019-03-21T11:07:01.638Z,18.00
2019-03-21T11:09:32.853Z,18.14
2019-03-21T11:12:03.122Z,18.03
2019-03-21T11:14:33.264Z,18.30
2019-03-21T11:17:03.426Z,18.09
2019-03-21T11:19:33.585Z,18.01
2019-03-21T11:22:06.553Z,18.16
2019-03-21T11:24:35.667Z,17.99
2019-03-21T11:27:06.027Z,18.35
2019-03-21T11:29:36.243Z,18.72
2019-03-21T11:32:06.449Z,18.71
2019-03-21T11:34:36.620Z,18.99
2019-03-21T11:37:06.848Z,19.98
2019-03-21T11:39:36.973Z,19.52
2019-03-21T11:42:07.118Z,19.07
2019-03-21T11:44:37.268Z,18.94
2019-03-21T11:47:06.618Z,19.29
2019-03-21T11:49:36.850Z,19.61
2019-03-21T11:52:17.767Z,19.92
2019-03-21T11:54:39.386Z,20.12
2019-03-21T11:57:09.614Z,19.95
2019-03-21T11:59:51.116Z,20.31
2019-03-21T12:02:11.710Z,20.56
2019-03-21T12:04:41.919Z,19.40
2019-03-21T12:07:12.090Z,19.76
2019-03-21T12:09:42.268Z,19.77
2019-03-21T12:12:12.548Z,20.47
2019-03-21T12:14:42.707Z,20.63
2019-03-21T12:17:13.058Z,20.27
2019-03-21T12:19:43.177Z,20.24
2019-03-21T12:22:13.301Z,19.20
2019-03-21T12:24:43.424Z,19.88
2019-03-21T12:27:13.601Z,20.79
2019-03-21T12:29:43.740Z,20.85
2019-03-21T12:32:13.860Z,21.20
2019-03-21T12:34:44.086Z,21.16
2019-03-21T12:37:14.243Z,20.12
2019-03-21T12:39:44.488Z,19.95
2019-03-21T12:42:14.635Z,19.80
2019-03-21T12:44:44.781Z,19.02
2019-03-21T12:47:14.944Z,19.71
2019-03-21T12:49:45.135Z,19.62
2019-03-21T12:52:15.349Z,20.63
2019-03-21T12:54:45.508Z,19.64
2019-03-21T12:57:15.666Z,20.14
2019-03-21T12:59:45.857Z,19.14
2019-03-21T13:02:15.985Z,19.67
2019-03-21T13:04:46.161Z,20.29
2019-03-21T13:07:16.955Z,19.95
2019-03-21T13:09:47.403Z,20.05
2019-03-21T13:12:17.605Z,20.67
2019-03-21T13:14:47.782Z,20.77
2019-03-21T13:17:17.974Z,19.69
2019-03-21T13:19:48.138Z,19.93
2019-03-21T13:22:18.261Z,19.66
2019-03-21T13:24:48.398Z,20.22
2019-03-21T13:27:18.599Z,19.87
2019-03-21T13:29:48.802Z,19.52
2019-03-21T13:32:19.009Z,18.90
2019-03-21T13:34:49.183Z,18.98
2019-03-21T13:37:19.417Z,18.75
2019-03-21T13:39:49.622Z,19.40
2019-03-21T13:42:19.879Z,18.89
2019-03-21T13:44:50.067Z,18.51
2019-03-21T13:47:20.201Z,19.97
2019-03-21T13:49:50.376Z,19.25
2019-03-21T13:52:20.547Z,18.47
2019-03-21T13:54:50.810Z,18.80
2019-03-21T13:57:20.958Z,19.39
2019-03-21T13:59:51.164Z,18.41
2019-03-21T14:02:21.382Z,18.47
2019-03-21T14:04:51.561Z,18.48
2019-03-21T14:07:21.807Z,18.48
2019-03-21T14:09:52.031Z,18.27
2019-03-21T14:12:22.209Z,18.86
2019-03-21T14:14:52.418Z,18.39
2019-03-21T14:17:22.578Z,18.33
2019-03-21T14:19:52.807Z,18.21
2019-03-21T14:22:22.958Z,18.25
2019-03-21T14:24:53.137Z,18.34
2019-03-21T14:27:25.881Z,18.27
2019-03-21T14:30:01.158Z,18.58
2019-03-21T14:32:27.199Z,18.71
2019-03-21T14:34:57.361Z,18.58
2019-03-21T14:37:27.598Z,18.59
2019-03-21T14:39:57.806Z,18.79
2019-03-21T14:42:27.995Z,19.22
2019-03-21T14:44:58.212Z,18.40
2019-03-21T14:47:36.105Z,19.20
2019-03-21T14:50:00.435Z,18.43
2019-03-21T14:52:30.612Z,18.62
2019-03-21T14:55:00.920Z,18.69
2019-03-21T14:57:31.104Z,18.47
2019-03-21T15:00:01.914Z,18.83
2019-03-21T15:02:32.313Z,19.75
2019-03-21T15:05:02.672Z,18.71
2019-03-21T15:07:33.039Z,18.14
2019-03-21T15:10:03.252Z,18.43
2019-03-21T15:12:34.548Z,17.98
2019-03-21T15:15:05.589Z,17.42
2019-03-21T15:17:35.819Z,17.58
2019-03-21T15:20:08.614Z,17.70
2019-03-21T15:22:39.008Z,17.90
2019-03-21T15:25:09.562Z,17.75
2019-03-21T15:27:39.884Z,17.97
2019-03-21T15:30:12.235Z,18.73
2019-03-21T15:32:42.488Z,18.01
2019-03-21T15:35:13.794Z,18.20
2019-03-21T15:37:43.976Z,18.19
2019-03-21T15:40:14.878Z,17.29
2019-03-21T15:42:45.316Z,17.35
2019-03-21T15:45:22.835Z,17.10
2019-03-21T15:47:49.037Z,16.97
2019-03-21T15:50:32.748Z,16.68
2019-03-21T15:53:03.195Z,16.71
2019-03-21T15:55:33.367Z,16.68
2019-03-21T15:58:03.609Z,16.79
2019-03-21T16:00:35.824Z,16.48
2019-03-21T16:03:07.537Z,16.63
2019-03-21T16:05:38.412Z,16.52
2019-03-21T16:08:09.456Z,16.49
2019-03-21T16:10:39.934Z,16.48
2019-03-21T16:13:10.099Z,16.41
2019-03-21T16:15:40.493Z,16.42
2019-03-21T16:18:10.731Z,16.44
2019-03-21T16:20:40.970Z,16.31
2019-03-21T16:23:11.185Z,16.76
2019-03-21T16:25:41.423Z,16.33
2019-03-21T16:28:11.644Z,16.98
2019-03-21T16:30:41.822Z,16.87
2019-03-21T16:33:12.051Z,17.07
2019-03-21T16:35:42.255Z,17.11
2019-03-21T16:38:12.417Z,17.33
2019-03-21T16:40:42.601Z,16.81
2019-03-21T16:43:12.770Z,17.01
2019-03-21T16:45:43.026Z,17.03
2019-03-21T16:48:13.225Z,16.99
2019-03-21T16:50:43.401Z,16.26
2019-03-21T16:53:13.631Z,15.89
2019-03-21T16:55:43.792Z,15.85
2019-03-21T16:58:14.012Z,15.65
2019-03-21T17:00:44.277Z,15.55
2019-03-21T17:03:14.435Z,15.49
2019-03-21T17:05:44.607Z,15.52
2019-03-21T17:08:15.169Z,15.40
2019-03-21T17:10:45.417Z,15.36
2019-03-21T17:13:15.617Z,14.94
2019-03-21T17:15:45.740Z,15.26
2019-03-21T17:18:15.944Z,15.68
2019-03-21T17:20:46.075Z,15.50
2019-03-21T17:23:16.297Z,15.61
2019-03-21T17:25:46.520Z,15.58
2019-03-21T17:28:16.657Z,16.02
2019-03-21T17:31:38.140Z,15.97
2019-03-21T17:34:08.069Z,16.01
2019-03-21T17:36:38.298Z,16.02
2019-03-21T17:39:10.007Z,16.09
2019-03-21T17:41:43.123Z,15.82
2019-03-21T17:44:12.093Z,15.29
2019-03-21T17:46:42.344Z,15.17
2019-03-21T17:49:12.581Z,14.91
2019-03-21T17:51:42.819Z,14.66
2019-03-21T17:54:13.057Z,14.55
2019-03-21T17:56:43.251Z,14.64
2019-03-21T17:59:13.414Z,14.58
2019-03-21T18:01:43.672Z,14.40
2019-03-21T18:04:13.990Z,14.41
2019-03-21T18:06:44.238Z,14.62
2019-03-21T18:09:14.407Z,14.64
2019-03-21T18:11:44.622Z,14.61
2019-03-21T18:14:14.796Z,14.62
2019-03-21T18:16:44.997Z,14.52
2019-03-21T18:19:15.186Z,14.43
2019-03-21T18:21:45.418Z,14.60
2019-03-21T18:24:15.745Z,14.79
2019-03-21T18:26:45.893Z,14.89
2019-03-21T18:29:16.060Z,14.97
2019-03-21T18:31:46.300Z,14.91
2019-03-21T18:34:16.568Z,14.97
2019-03-21T18:36:46.732Z,14.74
2019-03-21T18:39:17.044Z,14.80
2019-03-21T18:41:47.232Z,14.71
2019-03-21T18:44:17.570Z,14.76
2019-03-21T18:46:47.771Z,14.84
2019-03-21T18:49:18.030Z,14.98
2019-03-21T18:51:48.306Z,15.10
2019-03-21T18:54:18.478Z,15.08
2019-03-21T18:56:48.662Z,15.20
2019-03-21T18:59:18.931Z,15.20
2019-03-21T19:01:57.867Z,15.29
2019-03-21T19:04:21.065Z,15.36
2019-03-21T19:06:51.303Z,15.38
2019-03-21T19:09:21.533Z,15.30
2019-03-21T19:11:51.735Z,15.30
2019-03-21T19:14:21.931Z,15.33
2019-03-21T19:16:52.089Z,15.29
2019-03-21T19:19:22.318Z,15.29
2019-03-21T19:21:52.515Z,15.14
2019-03-21T19:24:22.780Z,15.08
2019-03-21T19:26:53.025Z,15.11
2019-03-21T19:29:23.195Z,14.92
2019-03-21T19:31:56.307Z,14.59
2019-03-21T19:34:26.689Z,14.51
2019-03-21T19:36:57.505Z,14.28
2019-03-21T19:39:27.696Z,14.46
2019-03-21T19:41:57.918Z,14.36
2019-03-21T19:44:28.113Z,14.35
2019-03-21T19:46:58.335Z,13.84
2019-03-21T19:49:28.541Z,13.64
2019-03-21T19:51:59.072Z,13.62
2019-03-21T19:54:29.381Z,13.64
2019-03-21T19:56:59.531Z,13.70
2019-03-21T19:59:29.791Z,13.37
2019-03-21T20:02:00.079Z,13.20
2019-03-21T20:04:30.241Z,13.24
2019-03-21T20:07:00.528Z,13.21
2019-03-21T20:09:30.719Z,13.30
2019-03-21T20:12:00.995Z,13.18
2019-03-21T20:14:31.179Z,13.35
2019-03-21T20:17:01.364Z,13.39
2019-03-21T20:19:31.501Z,13.43
2019-03-21T20:22:01.725Z,13.21
2019-03-21T20:24:31.959Z,13.15
2019-03-21T20:27:02.161Z,13.20
2019-03-21T20:29:32.341Z,13.01
2019-03-21T20:32:02.556Z,12.67
2019-03-21T20:34:32.868Z,12.57
2019-03-21T20:37:03.036Z,12.52
2019-03-21T20:39:33.267Z,12.81
2019-03-21T20:42:03.423Z,13.06
2019-03-21T20:44:33.585Z,13.09
2019-03-21T20:47:03.811Z,13.36
2019-03-21T20:49:34.003Z,13.46
2019-03-21T20:52:04.204Z,13.73
2019-03-21T20:54:34.461Z,13.73
2019-03-21T20:57:04.765Z,13.86
2019-03-21T20:59:35.063Z,13.87
2019-03-21T21:02:05.345Z,13.96
2019-03-21T21:04:35.522Z,13.93
2019-03-21T21:07:05.781Z,13.90
2019-03-21T21:09:36.019Z,13.65
2019-03-21T21:12:06.348Z,13.62
2019-03-21T21:14:36.582Z,13.63
2019-03-21T21:17:06.806Z,13.67
2019-03-21T21:19:37.017Z,13.65
2019-03-21T21:22:07.200Z,13.71
2019-03-21T21:24:37.419Z,13.85
2019-03-21T21:27:07.605Z,13.82
2019-03-21T21:29:37.879Z,13.79
2019-03-21T21:32:08.060Z,13.82
2019-03-21T21:34:38.288Z,13.63
2019-03-21T21:37:08.524Z,13.41
2019-03-21T21:39:38.728Z,13.20
2019-03-21T21:42:08.901Z,13.30
2019-03-21T21:44:39.051Z,13.47
2019-03-21T21:47:09.242Z,13.39
2019-03-21T21:49:39.544Z,13.64
2019-03-21T21:52:09.704Z,13.22
2019-03-21T21:54:39.947Z,13.24
2019-03-21T21:57:10.165Z,13.58
2019-03-21T21:59:40.804Z,13.31
2019-03-21T22:02:11.058Z,13.39
2019-03-21T22:04:41.275Z,13.59
2019-03-21T22:07:11.513Z,13.56
2019-03-21T22:09:41.763Z,13.61
2019-03-21T22:12:11.949Z,13.69
2019-03-21T22:14:42.179Z,13.46
2019-03-21T22:17:12.414Z,13.57
2019-03-21T22:19:42.593Z,13.59
2019-03-21T22:22:12.818Z,13.52
2019-03-21T22:24:42.986Z,13.28
2019-03-21T22:27:13.218Z,13.23
2019-03-21T22:29:43.413Z,13.03
2019-03-21T22:32:13.567Z,12.97
2019-03-21T22:34:43.767Z,12.93
2019-03-21T22:37:13.957Z,12.93
2019-03-21T22:39:44.183Z,13.07
2019-03-21T22:42:14.388Z,13.13
2019-03-21T22:44:44.575Z,13.18
2019-03-21T22:47:14.812Z,13.24
2019-03-21T22:49:45.036Z,12.88
2019-03-21T22:52:15.251Z,12.85
2019-03-21T22:54:45.438Z,12.88
2019-03-21T22:57:15.659Z,12.88
2019-03-21T22:59:45.977Z,12.89
2019-03-21T23:02:16.116Z,12.81
2019-03-21T23:04:46.334Z,12.76
2019-03-21T23:07:16.492Z,12.97
2019-03-21T23:09:46.703Z,13.14
2019-03-21T23:12:16.902Z,12.87
2019-03-21T23:14:47.965Z,12.96
2019-03-21T23:17:18.146Z,12.76
2019-03-21T23:19:48.360Z,12.36
2019-03-21T23:22:18.575Z,12.15
2019-03-21T23:24:48.782Z,12.25
2019-03-21T23:27:18.979Z,12.15
2019-03-21T23:29:49.971Z,12.07
2019-03-21T23:32:20.322Z,11.98
2019-03-21T23:34:50.541Z,12.11
2019-03-21T23:37:20.696Z,12.23
2019-03-21T23:39:50.905Z,11.58
2019-03-21T23:42:21.131Z,12.50
2019-03-21T23:44:51.370Z,12.37
2019-03-21T23:47:21.746Z,12.49
2019-03-21T23:49:51.903Z,12.38
2019-03-21T23:52:22.108Z,12.43
2019-03-21T23:54:52.392Z,12.40
2019-03-21T23:57:22.575Z,12.32
2019-03-21T23:59:52.791Z,12.42
